Time;durP1;ratioP1;P1;durP2;ratioP2;P2;SDS_P1;SDS_P2;PMS_P1;PMS_P2;Temp;Humidity;BMP_temperature;BMP_pressure;BME280_temperature;BME280_humidity;BME280_pressure;Samples;Min_cycle;Max_cycle;Signal;HPM_P1;HPM_P2
2022/02/20 00:01:10;;;;;;;0.63;0.30;;;;;;;3.87;55.43;99016.56;1686662;84;20922;-55
2022/02/20 00:03:36;;;;;;;1.00;0.30;;;;;;;3.86;55.53;99013.48;1683313;83;20962;-54
2022/02/20 00:06:03;;;;;;;0.77;0.30;;;;;;;3.85;55.61;99023.72;1664587;84;21292;-54
2022/02/20 00:08:29;;;;;;;1.27;0.30;;;;;;;3.85;55.68;99022.39;1682752;82;20971;-56
2022/02/20 00:10:56;;;;;;;1.33;0.30;;;;;;;3.85;55.72;99032.16;1682363;83;20970;-56
2022/02/20 00:13:22;;;;;;;2.53;0.30;;;;;;;3.83;55.77;99040.69;1686634;84;20891;-55
2022/02/20 00:15:49;;;;;;;2.17;0.30;;;;;;;3.82;55.85;99038.48;1682304;83;20939;-56
2022/02/20 00:18:15;;;;;;;1.10;0.37;;;;;;;3.80;55.90;99041.19;1682745;83;21133;-56
2022/02/20 00:20:44;;;;;;;1.60;0.30;;;;;;;3.77;56.07;99040.41;1680199;83;21056;-58
2022/02/20 00:23:12;;;;;;;2.20;0.57;;;;;;;3.76;56.14;99053.30;1683691;83;20996;-56
2022/02/20 00:25:38;;;;;;;1.10;0.33;;;;;;;3.73;56.14;99051.62;1678372;83;22180;-56
2022/02/20 00:28:05;;;;;;;3.07;0.40;;;;;;;3.72;56.22;99051.21;1682798;83;21495;-56
2022/02/20 00:30:31;;;;;;;1.13;0.30;;;;;;;3.71;56.30;99055.25;1680912;84;20903;-58
2022/02/20 00:33:00;;;;;;;1.87;0.30;;;;;;;3.71;56.31;99053.91;1679839;83;20946;-54
2022/02/20 00:35:28;;;;;;;0.93;0.40;;;;;;;3.69;56.34;99062.41;1696096;82;21410;-54
2022/02/20 00:37:55;;;;;;;2.33;1.03;;;;;;;3.68;56.43;99061.53;1674815;83;20978;-57
2022/02/20 00:40:23;;;;;;;2.67;0.30;;;;;;;3.68;56.49;99069.52;1673849;83;20955;-55
2022/02/20 00:42:49;;;;;;;1.90;0.40;;;;;;;3.65;56.57;99063.44;1671253;83;21521;-54
2022/02/20 00:45:16;;;;;;;3.07;0.40;;;;;;;3.63;56.61;99060.81;1669969;83;21683;-56
2022/02/20 00:47:42;;;;;;;0.93;0.30;;;;;;;3.63;56.70;99065.27;1668470;83;21682;-56
2022/02/20 00:50:09;;;;;;;5.83;0.30;;;;;;;3.61;56.81;99073.28;1666255;83;22433;-54
2022/02/20 00:52:35;;;;;;;2.30;0.30;;;;;;;3.59;56.86;99069.80;1668239;83;21636;-54
2022/02/20 00:55:02;;;;;;;0.67;0.23;;;;;;;3.58;56.99;99065.84;1668459;83;21650;-56
2022/02/20 00:57:29;;;;;;;3.17;0.23;;;;;;;3.56;57.05;99075.23;1672527;83;20946;-57
2022/02/20 00:59:55;;;;;;;1.97;0.30;;;;;;;3.55;57.06;99077.48;1666648;85;21137;-56
2022/02/20 01:02:23;;;;;;;1.43;0.40;;;;;;;3.54;57.17;99084.17;1667777;83;21138;-57
2022/02/20 01:04:52;;;;;;;0.60;0.30;;;;;;;3.53;57.20;99084.63;1670809;83;21370;-55
2022/02/20 01:07:20;;;;;;;3.13;0.50;;;;;;;3.52;57.30;99093.52;1664978;83;21497;-56
2022/02/20 01:09:47;;;;;;;2.27;0.33;;;;;;;3.51;57.37;99099.77;1695867;82;21558;-55
2022/02/20 01:12:14;;;;;;;1.40;0.30;;;;;;;3.50;57.44;99089.16;1672348;83;21220;-57
2022/02/20 01:14:40;;;;;;;1.57;0.40;;;;;;;3.49;57.55;99097.59;1731677;80;21120;-57
2022/02/20 01:17:06;;;;;;;0.70;0.30;;;;;;;3.49;57.62;99107.41;1729921;81;21045;-55
2022/02/20 01:19:33;;;;;;;0.90;0.40;;;;;;;3.47;57.70;99107.90;1703053;82;21178;-56
2022/02/20 01:21:59;;;;;;;1.60;0.30;;;;;;;3.45;57.79;99112.39;1698079;82;21047;-53
2022/02/20 01:24:25;;;;;;;2.23;0.30;;;;;;;3.44;57.83;99118.16;1696351;82;21059;-54
2022/02/20 01:26:52;;;;;;;2.10;0.40;;;;;;;3.45;57.92;99115.05;1695505;82;21448;-55
2022/02/20 01:29:21;;;;;;;1.00;0.40;;;;;;;3.45;57.93;99115.92;1697387;82;21009;-56
2022/02/20 01:31:47;;;;;;;2.20;0.57;;;;;;;3.48;58.06;99118.95;1698476;82;21132;-55
2022/02/20 01:34:14;;;;;;;3.37;0.30;;;;;;;3.47;58.17;99115.42;1663427;84;21104;-53
2022/02/20 01:36:41;;;;;;;1.47;0.33;;;;;;;3.50;58.20;99122.42;1663135;84;21721;-54
2022/02/20 01:39:10;;;;;;;2.20;0.40;;;;;;;3.51;58.26;99135.69;1665643;84;20967;-56
2022/02/20 01:41:36;;;;;;;1.77;0.40;;;;;;;3.54;58.35;99127.62;1697878;82;21164;-56
2022/02/20 01:44:02;;;;;;;1.73;0.40;;;;;;;3.57;58.32;99131.99;1697090;82;22427;-57
2022/02/20 01:46:29;;;;;;;3.93;0.40;;;;;;;3.59;58.37;99131.45;1698222;82;21160;-56
2022/02/20 01:48:55;;;;;;;2.10;0.43;;;;;;;3.61;58.44;99133.17;1696145;82;21049;-55
2022/02/20 01:51:21;;;;;;;1.37;0.40;;;;;;;3.64;58.46;99138.41;1694557;82;21080;-55
2022/02/20 01:53:50;;;;;;;2.23;0.40;;;;;;;3.65;58.45;99138.83;1696664;82;21077;-54
2022/02/20 01:56:17;;;;;;;1.23;0.30;;;;;;;3.67;58.47;99140.95;1695930;82;21819;-55
2022/02/20 01:59:03;;;;;;;1.92;0.35;;;;;;;3.68;58.52;99144.03;1699095;82;21125;-57
2022/02/20 02:01:47;;;;;;;1.20;0.40;;;;;;;3.70;58.49;99142.20;1698165;82;21018;-54
2022/02/20 02:04:16;;;;;;;2.33;0.30;;;;;;;3.72;58.45;99143.50;1696381;82;21400;-55
2022/02/20 02:06:44;;;;;;;1.97;0.40;;;;;;;3.72;58.49;99144.83;1697172;82;21412;-57
2022/02/20 02:09:13;;;;;;;5.90;0.87;;;;;;;3.74;58.48;99147.84;1699803;82;21104;-56
2022/02/20 02:11:49;;;;;;;2.23;0.33;;;;;;;3.76;58.43;99132.70;1699140;82;21507;-56
2022/02/20 02:14:20;;;;;;;1.37;0.40;;;;;;;3.77;58.39;99146.42;1701985;82;21073;-55
2022/02/20 02:16:57;;;;;;;4.00;0.37;;;;;;;3.78;58.40;99148.17;1638820;85;21096;-56
2022/02/20 02:19:44;;;;;;;1.10;0.37;;;;;;;3.77;58.41;99139.77;1703301;82;21044;-57
2022/02/20 02:22:12;;;;;;;2.17;0.40;;;;;;;3.77;58.44;99149.09;1724601;82;22757;-56
2022/02/20 02:24:46;;;;;;;0.93;0.42;;;;;;;3.77;58.48;99145.55;1720398;81;21346;-56
2022/02/20 02:27:19;;;;;;;1.53;0.40;;;;;;;3.78;58.56;99155.28;1721828;82;21128;-58
2022/02/20 02:30:07;;;;;;;1.82;0.30;;;;;;;3.77;58.60;99152.20;1725193;80;21038;-55
2022/02/20 02:32:34;;;;;;;2.90;0.40;;;;;;;3.76;58.60;99150.45;1672165;84;21552;-57
2022/02/20 02:35:00;;;;;;;1.40;0.40;;;;;;;3.75;58.62;99154.91;1679079;82;21118;-57
2022/02/20 02:37:27;;;;;;;4.57;0.50;;;;;;;3.75;58.62;99158.03;1723944;81;21171;-57
2022/02/20 02:39:53;;;;;;;2.73;0.40;;;;;;;3.73;58.65;99159.43;1724165;81;21096;-57
2022/02/20 02:42:20;;;;;;;2.10;0.50;;;;;;;3.74;58.73;99161.64;1725176;81;21506;-54
2022/02/20 02:44:47;;;;;;;1.80;0.40;;;;;;;3.72;58.74;99161.67;1725773;81;21697;-56
2022/02/20 02:47:13;;;;;;;3.70;0.40;;;;;;;3.69;58.78;99151.56;1726148;81;21115;-57
2022/02/20 02:49:40;;;;;;;2.10;0.33;;;;;;;3.67;58.90;99166.24;1726579;81;21029;-59
2022/02/20 02:52:06;;;;;;;1.47;0.40;;;;;;;3.64;58.91;99165.03;1724823;81;21088;-57
2022/02/20 02:54:33;;;;;;;1.60;0.60;;;;;;;3.62;58.91;99160.20;1722323;80;21052;-58
2022/02/20 02:56:59;;;;;;;1.27;0.40;;;;;;;3.57;59.00;99164.80;1672171;83;21090;-57
2022/02/20 02:59:26;;;;;;;6.97;0.60;;;;;;;3.52;59.09;99167.16;1708232;82;21157;-58
2022/02/20 03:01:54;;;;;;;1.43;0.50;;;;;;;3.48;59.18;99170.38;1674456;83;21683;-58
2022/02/20 03:04:21;;;;;;;5.03;0.47;;;;;;;3.44;59.35;99171.38;1729163;80;20884;-57
2022/02/20 03:06:47;;;;;;;1.53;0.60;;;;;;;3.40;59.46;99176.39;1729928;82;21059;-58
2022/02/20 03:09:14;;;;;;;2.70;0.50;;;;;;;3.36;59.62;99176.05;1713115;82;20962;-57
2022/02/20 03:11:40;;;;;;;1.37;0.50;;;;;;;3.30;59.78;99173.56;1729098;81;21871;-57
2022/02/20 03:14:10;;;;;;;4.77;0.50;;;;;;;3.27;59.93;99175.84;1695250;83;21449;-57
2022/02/20 03:16:36;;;;;;;1.20;0.50;;;;;;;3.21;60.08;99171.16;1727028;81;21008;-57
2022/02/20 03:19:03;;;;;;;6.17;0.93;;;;;;;3.19;60.28;99175.19;1727926;82;20855;-57
2022/02/20 03:21:31;;;;;;;1.70;0.40;;;;;;;3.15;60.41;99177.50;1726975;81;21377;-56
2022/02/20 03:23:57;;;;;;;1.40;0.60;;;;;;;3.13;60.47;99175.36;1730630;82;21120;-57
2022/02/20 03:26:24;;;;;;;1.90;0.50;;;;;;;3.11;60.63;99182.95;1727754;81;20962;-57
2022/02/20 03:28:52;;;;;;;3.90;0.50;;;;;;;3.07;60.73;99175.51;1729096;81;20859;-55
2022/02/20 03:31:20;;;;;;;2.87;0.50;;;;;;;3.05;60.84;99184.01;1710078;82;20978;-55
2022/02/20 03:33:47;;;;;;;1.60;0.67;;;;;;;3.02;60.95;99188.94;1727870;80;21376;-54
2022/02/20 03:36:15;;;;;;;2.07;0.50;;;;;;;2.98;61.08;99195.23;1722446;81;21247;-56
2022/02/20 03:38:42;;;;;;;1.73;0.50;;;;;;;2.97;61.23;99208.14;1727223;82;21430;-55
2022/02/20 03:41:08;;;;;;;1.10;0.40;;;;;;;2.94;61.30;99203.35;1726350;81;20997;-54
2022/02/20 03:43:36;;;;;;;2.17;0.57;;;;;;;2.92;61.45;99199.40;1726125;80;21036;-55
2022/02/20 03:46:03;;;;;;;0.90;0.40;;;;;;;2.90;61.55;99202.55;1724721;82;21096;-54
2022/02/20 03:48:33;;;;;;;3.90;0.60;;;;;;;2.89;61.63;99200.80;1695001;83;20888;-56
2022/02/20 03:51:02;;;;;;;2.33;0.40;;;;;;;2.89;61.70;99204.78;1728881;82;21056;-55
2022/02/20 03:53:29;;;;;;;1.20;0.50;;;;;;;2.89;61.75;99215.91;1723811;82;21463;-56
2022/02/20 03:55:57;;;;;;;2.33;0.50;;;;;;;2.88;61.84;99208.84;1726512;82;21144;-54
2022/02/20 03:58:24;;;;;;;1.40;0.50;;;;;;;2.86;61.89;99204.88;1725287;81;21087;-54
2022/02/20 04:00:52;;;;;;;1.37;0.50;;;;;;;2.84;62.02;99216.00;1723336;81;22921;-56
2022/02/20 04:03:30;;;;;;;2.70;0.60;;;;;;;2.82;62.07;99213.83;1713597;82;21090;-54
2022/02/20 04:05:57;;;;;;;2.43;0.50;;;;;;;2.79;62.21;99216.59;1719724;81;21072;-55
2022/02/20 04:08:24;;;;;;;1.47;0.50;;;;;;;2.77;62.31;99226.38;1724400;82;21134;-57
2022/02/20 04:10:53;;;;;;;2.30;0.50;;;;;;;2.75;62.37;99222.87;1694742;83;20891;-56
2022/02/20 04:13:27;;;;;;;4.00;0.50;;;;;;;2.73;62.51;99218.50;1726148;81;21902;-55
2022/02/20 04:15:53;;;;;;;3.43;0.50;;;;;;;2.71;62.66;99228.33;1725827;81;22402;-54
2022/02/20 04:18:25;;;;;;;2.60;0.40;;;;;;;2.69;62.75;99223.50;1728008;81;21056;-55
2022/02/20 04:20:53;;;;;;;4.40;0.40;;;;;;;2.66;62.90;99225.77;1711069;81;21103;-56
2022/02/20 04:23:20;;;;;;;2.60;0.40;;;;;;;2.63;62.97;99228.06;1640521;85;21150;-55
2022/02/20 04:25:47;;;;;;;3.63;0.50;;;;;;;2.63;63.03;99221.42;1666407;84;21164;-55
2022/02/20 04:28:13;;;;;;;1.20;0.47;;;;;;;2.62;63.09;99221.00;1635106;86;21133;-57
2022/02/20 04:30:40;;;;;;;2.70;0.43;;;;;;;2.61;63.15;99223.69;1696848;83;21120;-56
2022/02/20 04:33:09;;;;;;;1.10;0.43;;;;;;;2.58;63.23;99220.64;1697888;82;21572;-55
2022/02/20 04:35:37;;;;;;;2.43;0.60;;;;;;;2.58;63.29;99219.77;1695915;82;21074;-56
2022/02/20 04:38:04;;;;;;;2.77;0.50;;;;;;;2.56;63.34;99230.87;1693567;83;22235;-56
2022/02/20 04:40:31;;;;;;;3.10;0.60;;;;;;;2.55;63.40;99239.78;1695555;83;21134;-57
2022/02/20 04:43:01;;;;;;;3.43;0.73;;;;;;;2.51;63.48;99234.11;1693578;82;21106;-57
2022/02/20 04:45:28;;;;;;;1.97;0.70;;;;;;;2.50;63.57;99232.36;1694828;82;21241;-56
2022/02/20 04:47:55;;;;;;;2.03;0.70;;;;;;;2.49;63.63;99235.47;1694567;83;21087;-55
2022/02/20 04:50:22;;;;;;;2.57;0.70;;;;;;;2.47;63.67;99244.38;1692866;82;21516;-55
2022/02/20 04:52:56;;;;;;;1.80;0.70;;;;;;;2.44;63.72;99241.81;1695967;83;21521;-56
2022/02/20 04:55:28;;;;;;;2.70;0.97;;;;;;;2.42;63.82;99244.95;1696142;83;21058;-56
2022/02/20 04:57:54;;;;;;;4.90;0.70;;;;;;;2.41;63.85;99252.50;1693228;82;21071;-56
2022/02/20 05:00:21;;;;;;;2.17;0.60;;;;;;;2.41;63.90;99256.48;1692598;83;21643;-55
2022/02/20 05:02:49;;;;;;;2.47;0.60;;;;;;;2.39;64.00;99266.27;1691168;82;21109;-57
2022/02/20 05:05:16;;;;;;;5.13;0.50;;;;;;;2.37;64.05;99264.13;1667726;83;21076;-57
2022/02/20 05:07:42;;;;;;;2.70;0.50;;;;;;;2.34;64.12;99265.52;1670061;83;21076;-55
2022/02/20 05:10:11;;;;;;;2.50;0.40;;;;;;;2.34;64.19;99269.05;1662302;83;21543;-56
2022/02/20 05:12:37;;;;;;;1.90;0.50;;;;;;;2.32;64.32;99267.32;1670795;83;21060;-57
2022/02/20 05:15:05;;;;;;;4.00;0.40;;;;;;;2.32;64.37;99272.63;1662612;83;21156;-57
2022/02/20 05:17:40;;;;;;;2.00;0.40;;;;;;;2.32;64.48;99275.28;1663139;83;21052;-55
2022/02/20 05:20:10;;;;;;;9.10;0.50;;;;;;;2.32;64.56;99279.27;1662008;83;21042;-55
2022/02/20 05:22:37;;;;;;;0.93;0.33;;;;;;;2.31;64.60;99278.84;1690981;82;21160;-55
2022/02/20 05:25:06;;;;;;;2.47;0.60;;;;;;;2.32;64.61;99286.79;1725901;81;21044;-57
2022/02/20 05:27:33;;;;;;;3.20;0.40;;;;;;;2.33;64.70;99295.17;1719901;80;21164;-56
2022/02/20 05:29:59;;;;;;;3.43;0.50;;;;;;;2.32;64.76;99290.77;1724938;80;21036;-57
2022/02/20 05:32:27;;;;;;;7.23;0.40;;;;;;;2.32;64.84;99292.55;1725241;80;21406;-57
2022/02/20 05:34:56;;;;;;;4.20;0.50;;;;;;;2.36;64.88;99300.89;1727105;82;21133;-54
2022/02/20 05:37:23;;;;;;;1.77;0.57;;;;;;;2.41;64.89;99292.34;1729346;82;20934;-57
2022/02/20 05:39:50;;;;;;;3.83;0.40;;;;;;;2.46;64.85;99292.68;1732594;80;21097;-57
2022/02/20 05:42:16;;;;;;;2.53;0.43;;;;;;;2.52;64.76;99297.84;1723510;82;21041;-57
2022/02/20 05:44:45;;;;;;;3.37;0.50;;;;;;;2.57;64.66;99297.27;1722520;82;21351;-55
2022/02/20 05:47:14;;;;;;;2.10;0.40;;;;;;;2.64;64.65;99299.32;1725251;81;21089;-55
2022/02/20 05:49:40;;;;;;;1.70;0.43;;;;;;;2.71;64.50;99297.42;1667441;83;21128;-54
2022/02/20 05:52:08;;;;;;;0.90;0.40;;;;;;;2.79;64.42;99302.09;1722797;81;21054;-56
2022/02/20 05:54:39;;;;;;;2.13;0.50;;;;;;;2.87;64.27;99306.77;1720746;80;21040;-56
2022/02/20 05:57:06;;;;;;;1.13;0.50;;;;;;;2.95;64.10;99304.80;1724250;80;21017;-55
2022/02/20 05:59:35;;;;;;;3.33;0.60;;;;;;;3.00;63.93;99303.77;1729758;80;21017;-55
2022/02/20 06:02:01;;;;;;;3.67;0.60;;;;;;;3.08;63.76;99308.00;1727736;81;20962;-56
2022/02/20 06:04:28;;;;;;;3.33;0.50;;;;;;;3.12;63.58;99309.69;1709151;81;21097;-57
2022/02/20 06:06:59;;;;;;;1.30;0.50;;;;;;;3.16;63.46;99314.87;1729959;80;20921;-56
2022/02/20 06:09:27;;;;;;;1.83;0.50;;;;;;;3.22;63.33;99316.53;1721955;81;20966;-56
2022/02/20 06:11:56;;;;;;;2.07;0.60;;;;;;;3.24;63.15;99323.99;1725182;81;20954;-56
2022/02/20 06:14:24;;;;;;;1.30;0.50;;;;;;;3.26;63.07;99317.73;1701847;82;21992;-54
2022/02/20 06:16:54;;;;;;;2.80;0.80;;;;;;;3.31;62.97;99324.28;1731090;81;20898;-55
2022/02/20 06:19:33;;;;;;;0.90;0.50;;;;;;;3.34;62.87;99326.84;1729212;81;20982;-56
2022/02/20 06:22:12;;;;;;;3.50;0.90;;;;;;;3.37;62.74;99332.97;1692937;82;20931;-56
2022/02/20 06:24:46;;;;;;;3.53;0.50;;;;;;;3.37;62.69;99331.64;1729426;81;21324;-57
2022/02/20 06:27:14;;;;;;;2.43;0.43;;;;;;;3.39;62.67;99326.28;1728484;81;20858;-58
2022/02/20 06:29:42;;;;;;;2.50;0.60;;;;;;;3.41;62.60;99331.08;1728391;81;21123;-55
2022/02/20 06:32:10;;;;;;;1.87;0.60;;;;;;;3.45;62.64;99329.23;1726195;81;21068;-56
2022/02/20 06:34:36;;;;;;;2.40;0.60;;;;;;;3.47;62.58;99336.27;1689425;82;21073;-54
2022/02/20 06:37:04;;;;;;;2.40;0.70;;;;;;;3.50;62.53;99333.95;1707759;81;21098;-57
2022/02/20 06:39:33;;;;;;;2.20;0.50;;;;;;;3.51;62.42;99348.56;1726783;81;21065;-55
2022/02/20 06:42:00;;;;;;;4.10;0.50;;;;;;;3.54;62.37;99348.95;1722331;81;21721;-56
2022/02/20 06:44:27;;;;;;;2.90;0.50;;;;;;;3.55;62.36;99344.05;1727041;80;21425;-55
2022/02/20 06:46:56;;;;;;;1.20;0.50;;;;;;;3.58;62.31;99349.27;1731567;81;21040;-56
2022/02/20 06:49:34;;;;;;;2.90;0.70;;;;;;;3.62;62.23;99354.48;1727724;81;21088;-54
2022/02/20 06:52:03;;;;;;;6.10;0.50;;;;;;;3.69;62.24;99359.18;1723497;80;21066;-54
2022/02/20 06:54:31;;;;;;;1.03;0.40;;;;;;;3.73;62.17;99357.74;1690059;82;22396;-54
2022/02/20 06:57:02;;;;;;;2.60;0.40;;;;;;;3.79;61.96;99360.69;1681783;83;21078;-53
2022/02/20 06:59:29;;;;;;;1.27;0.50;;;;;;;3.83;61.91;99366.81;1682895;83;21082;-54
2022/02/20 07:01:56;;;;;;;2.67;0.47;;;;;;;3.90;61.85;99367.05;1684715;83;21097;-55
2022/02/20 07:04:22;;;;;;;1.47;0.50;;;;;;;3.94;61.62;99370.91;1683903;83;22318;-54
2022/02/20 07:06:48;;;;;;;1.73;0.40;;;;;;;3.96;61.60;99362.88;1680176;82;21135;-54
2022/02/20 07:09:15;;;;;;;2.33;0.50;;;;;;;3.98;61.56;99361.94;1680003;82;21097;-55
2022/02/20 07:11:41;;;;;;;2.30;0.50;;;;;;;4.03;61.50;99372.45;1678332;82;21467;-54
2022/02/20 07:14:09;;;;;;;2.83;0.47;;;;;;;4.04;61.29;99366.20;1677813;83;21132;-54
2022/02/20 07:16:35;;;;;;;2.60;0.40;;;;;;;4.07;61.33;99368.80;1680360;82;21097;-55
2022/02/20 07:19:03;;;;;;;2.07;0.60;;;;;;;4.09;61.29;99371.81;1684517;83;21147;-54
2022/02/20 07:21:29;;;;;;;2.77;0.57;;;;;;;4.13;61.22;99366.83;1678886;82;21116;-56
2022/02/20 07:23:58;;;;;;;3.53;0.53;;;;;;;4.17;61.15;99364.92;1680922;83;21078;-55
2022/02/20 07:26:28;;;;;;;1.20;0.40;;;;;;;4.21;61.03;99361.27;1735389;80;21051;-53
2022/02/20 07:28:52;;;;;;;0.87;0.33;;;;;;;4.23;60.92;99358.58;1730957;80;21046;-53
2022/02/20 07:31:19;;;;;;;3.70;0.50;;;;;;;4.24;60.95;99351.88;1736173;81;21125;-53
2022/02/20 07:36:10;;;;;;;2.13;0.40;;;;;;;4.34;60.86;99353.81;1842580;75;27000;-54
2022/02/20 07:38:36;;;;;;;1.37;0.43;;;;;;;4.35;60.82;99355.53;1827891;77;20922;-56
2022/02/20 07:41:03;;;;;;;2.63;0.50;;;;;;;4.40;60.80;99351.84;1821961;77;20999;-54
2022/02/20 07:43:30;;;;;;;1.60;0.40;;;;;;;4.48;60.64;99346.27;1819055;77;21479;-55
2022/02/20 07:45:56;;;;;;;4.53;0.50;;;;;;;4.55;60.50;99345.16;1816240;77;21518;-55
2022/02/20 07:48:23;;;;;;;1.00;0.50;;;;;;;4.61;60.45;99344.09;1819665;77;21424;-55
2022/02/20 07:50:50;;;;;;;2.33;0.50;;;;;;;4.69;60.25;99346.06;1817868;77;20968;-57
2022/02/20 07:53:16;;;;;;;0.80;0.40;;;;;;;4.73;60.09;99347.27;1822746;77;22432;-54
2022/02/20 07:55:42;;;;;;;2.70;0.53;;;;;;;4.79;60.16;99342.19;1817584;77;20979;-55
2022/02/20 07:58:11;;;;;;;3.63;0.70;;;;;;;4.86;59.95;99341.08;1824939;76;20947;-57
2022/02/20 08:00:38;;;;;;;2.10;0.40;;;;;;;4.93;59.88;99344.83;1830014;76;21057;-56
2022/02/20 08:03:05;;;;;;;1.50;0.30;;;;;;;5.02;59.34;99345.48;1821152;77;21425;-57
2022/02/20 08:05:32;;;;;;;1.53;0.40;;;;;;;5.05;59.12;99352.91;1815251;77;22523;-56
2022/02/20 08:07:58;;;;;;;0.80;0.33;;;;;;;5.09;59.08;99353.70;1816815;77;21542;-57
2022/02/20 08:10:25;;;;;;;0.80;0.40;;;;;;;5.10;58.99;99352.32;1816590;77;21758;-58
2022/02/20 08:12:53;;;;;;;2.70;0.40;;;;;;;5.11;58.68;99342.03;1816542;77;21095;-56
2022/02/20 08:15:19;;;;;;;3.43;0.57;;;;;;;5.15;58.75;99354.82;1815640;77;22560;-57
2022/02/20 08:17:48;;;;;;;1.40;0.40;;;;;;;5.21;58.77;99360.83;1819588;77;21300;-55
2022/02/20 08:20:15;;;;;;;5.50;1.43;;;;;;;5.26;58.37;99363.36;1823136;77;21369;-57
2022/02/20 08:22:42;;;;;;;1.17;0.40;;;;;;;5.31;58.21;99350.27;1818058;77;20942;-56
2022/02/20 08:25:09;;;;;;;3.60;0.70;;;;;;;5.38;58.13;99363.39;1815658;77;21409;-56
2022/02/20 08:27:36;;;;;;;2.67;0.50;;;;;;;5.40;57.69;99358.88;1816587;77;21092;-57
2022/02/20 08:30:05;;;;;;;2.63;0.40;;;;;;;5.43;57.72;99352.12;1816541;77;22365;-56
2022/02/20 08:32:32;;;;;;;2.13;0.40;;;;;;;5.47;57.68;99358.63;1820420;77;21433;-55
2022/02/20 08:34:59;;;;;;;1.00;0.57;;;;;;;5.51;57.56;99358.07;1818742;77;21049;-57
2022/02/20 08:37:26;;;;;;;1.57;0.50;;;;;;;5.57;57.73;99356.52;1820490;76;21479;-56
2022/02/20 08:39:53;;;;;;;2.53;0.50;;;;;;;5.64;57.46;99355.38;1818674;77;20997;-56
2022/02/20 08:42:21;;;;;;;2.10;0.40;;;;;;;5.71;56.95;99356.44;1820901;76;21385;-55
2022/02/20 08:44:47;;;;;;;3.37;0.53;;;;;;;5.76;56.81;99350.08;1830984;76;21122;-58
2022/02/20 08:47:14;;;;;;;1.43;0.40;;;;;;;5.79;56.80;99355.30;1824503;77;21045;-55
2022/02/20 08:49:40;;;;;;;1.97;0.50;;;;;;;5.84;56.67;99358.23;1818684;77;21567;-56
2022/02/20 08:52:08;;;;;;;0.83;0.40;;;;;;;5.89;56.47;99354.08;1820759;76;21028;-55
2022/02/20 08:54:36;;;;;;;2.07;0.50;;;;;;;5.93;56.06;99357.95;1822318;77;21372;-57
2022/02/20 08:57:07;;;;;;;2.47;0.50;;;;;;;5.93;55.93;99361.95;1823171;77;20895;-57
2022/02/20 08:59:32;;;;;;;2.03;0.60;;;;;;;5.97;55.79;99357.35;1822638;77;20974;-56
2022/02/20 09:01:58;;;;;;;1.10;0.40;;;;;;;6.00;55.75;99354.58;1822606;76;20885;-57
2022/02/20 09:04:25;;;;;;;1.47;0.57;;;;;;;6.02;55.52;99344.72;1824956;76;20906;-56
2022/02/20 09:06:51;;;;;;;2.47;0.57;;;;;;;6.05;55.56;99353.48;1819385;77;21085;-57
2022/02/20 09:09:17;;;;;;;1.60;0.50;;;;;;;6.13;55.48;99358.54;1825768;77;20926;-57
2022/02/20 09:11:44;;;;;;;4.40;0.50;;;;;;;6.20;54.83;99355.20;1834858;76;20926;-55
2022/02/20 09:14:10;;;;;;;2.60;0.60;;;;;;;6.23;54.45;99354.61;1833779;76;21436;-55
2022/02/20 09:16:37;;;;;;;1.60;0.50;;;;;;;6.28;54.72;99365.14;1823862;77;20933;-54
2022/02/20 09:19:06;;;;;;;3.03;0.50;;;;;;;6.35;54.38;99366.66;1821570;77;21077;-55
2022/02/20 09:21:34;;;;;;;1.83;0.40;;;;;;;6.39;54.39;99367.80;1824533;77;20937;-55
2022/02/20 09:24:00;;;;;;;2.87;0.60;;;;;;;6.44;54.07;99366.31;1824807;77;20934;-55
2022/02/20 09:26:26;;;;;;;2.00;0.50;;;;;;;6.46;53.83;99363.97;1823578;77;20894;-57
2022/02/20 09:28:53;;;;;;;2.67;0.60;;;;;;;6.51;53.65;99377.19;1820457;76;20933;-56
2022/02/20 09:31:20;;;;;;;0.80;0.50;;;;;;;6.55;53.82;99366.76;1827770;76;21361;-55
2022/02/20 09:33:46;;;;;;;2.53;0.63;;;;;;;6.62;53.48;99369.64;1826566;77;20882;-56
2022/02/20 09:36:13;;;;;;;3.30;0.50;;;;;;;6.69;53.46;99376.48;1821544;77;20883;-55
2022/02/20 09:38:40;;;;;;;2.20;0.50;;;;;;;6.77;53.17;99365.48;1825856;76;20973;-56
2022/02/20 09:41:07;;;;;;;2.03;0.50;;;;;;;6.82;53.39;99365.70;1823877;77;21530;-56
2022/02/20 09:43:34;;;;;;;3.10;0.50;;;;;;;6.92;52.91;99369.36;1760769;79;21132;-57
2022/02/20 09:46:00;;;;;;;2.47;0.60;;;;;;;6.91;52.54;99367.14;1761074;80;21102;-57
2022/02/20 09:48:27;;;;;;;2.53;0.50;;;;;;;6.93;52.38;99363.08;1763812;79;21047;-56
2022/02/20 09:50:53;;;;;;;2.50;0.60;;;;;;;6.93;52.64;99359.94;1767604;80;21065;-57
2022/02/20 09:53:21;;;;;;;1.97;0.40;;;;;;;6.97;52.42;99358.02;1763609;78;21066;-57
2022/02/20 09:55:49;;;;;;;1.43;0.40;;;;;;;6.99;51.85;99362.36;1757676;80;21127;-56
2022/02/20 09:58:16;;;;;;;1.37;0.47;;;;;;;6.97;51.42;99355.34;1759102;80;21114;-53
2022/02/20 10:00:53;;;;;;;2.50;0.40;;;;;;;6.93;51.15;99349.23;1756775;80;21608;-56
2022/02/20 10:03:32;;;;;;;2.67;0.40;;;;;;;6.88;50.58;99349.02;1752891;80;21257;-54
2022/02/20 10:06:01;;;;;;;1.63;0.40;;;;;;;6.82;50.94;99342.09;1749578;79;21010;-54
2022/02/20 10:08:45;;;;;;;4.17;0.50;;;;;;;6.79;51.23;99333.74;1764697;80;21583;-54
2022/02/20 10:11:27;;;;;;;1.90;0.80;;;;;;;6.83;51.20;99338.02;1763983;80;21197;-54
2022/02/20 10:14:14;;;;;;;2.47;0.50;;;;;;;6.90;51.49;99335.97;1754412;80;21229;-55
2022/02/20 10:16:40;;;;;;;2.50;0.70;;;;;;;6.95;50.67;99321.95;1753970;80;21082;-54
2022/02/20 10:19:25;;;;;;;;;;;;;;;6.95;50.71;99325.97;1762346;79;21581;-54
2022/02/20 10:22:10;;;;;;;0.80;0.40;;;;;;;7.00;51.18;99327.11;1764534;80;21738;-54
2022/02/20 10:25:06;;;;;;;3.27;0.60;;;;;;;7.10;51.39;99315.98;1761030;80;20940;-54
2022/02/20 10:27:36;;;;;;;1.40;0.50;;;;;;;7.21;50.65;99315.54;1720480;80;20987;-54
2022/02/20 10:30:21;;;;;;;1.93;0.57;;;;;;;7.27;50.65;99311.26;1761627;80;21027;-57
2022/02/20 10:33:16;;;;;;;2.53;0.43;;;;;;;7.32;50.24;99308.37;1757346;80;21117;-56
2022/02/20 10:35:43;;;;;;;1.53;0.40;;;;;;;7.32;49.89;99307.04;1760470;79;21110;-54
2022/02/20 10:38:19;;;;;;;3.20;0.40;;;;;;;7.37;49.89;99305.93;1767781;80;21113;-55
2022/02/20 10:40:52;;;;;;;5.80;0.60;;;;;;;7.39;49.11;99305.41;1769782;79;21077;-55
2022/02/20 10:43:33;;;;;;;1.93;0.50;;;;;;;7.40;49.13;99301.77;1761572;80;20884;-56
2022/02/20 10:46:23;;;;;;;1.83;0.73;;;;;;;7.40;49.36;99304.44;1762115;80;20989;-55
2022/02/20 10:48:52;;;;;;;1.07;0.40;;;;;;;7.43;49.36;99300.30;1762105;80;21138;-53
2022/02/20 10:51:20;;;;;;;1.23;0.40;;;;;;;7.50;49.01;99284.37;1763331;80;20872;-55
2022/02/20 10:53:48;;;;;;;1.57;0.80;;;;;;;7.56;48.64;99285.94;1762723;80;20931;-56
2022/02/20 10:56:15;;;;;;;3.70;0.47;;;;;;;7.59;48.46;99282.63;1761212;80;20971;-56
2022/02/20 10:58:45;;;;;;;0.83;0.47;;;;;;;7.62;48.47;99268.72;1762678;79;21580;-56
2022/02/20 11:01:24;;;;;;;1.13;0.40;;;;;;;7.63;48.28;99276.69;1754602;80;21043;-56
2022/02/20 11:04:03;;;;;;;0.80;0.20;;;;;;;7.67;47.94;99272.05;1764069;79;20888;-53
2022/02/20 11:06:31;;;;;;;1.27;0.50;;;;;;;7.69;47.52;99263.48;1749225;80;20951;-57
2022/02/20 11:08:58;;;;;;;1.67;0.60;;;;;;;7.67;47.44;99258.19;1767149;80;21378;-53
2022/02/20 11:11:37;;;;;;;0.90;0.40;;;;;;;7.68;47.47;99259.06;1768675;80;20935;-56
2022/02/20 11:14:05;;;;;;;1.87;0.40;;;;;;;7.69;47.02;99259.47;1774354;78;21820;-55
2022/02/20 11:16:32;;;;;;;1.27;0.40;;;;;;;7.65;47.04;99245.83;1769214;80;20913;-55
2022/02/20 11:19:03;;;;;;;0.90;0.33;;;;;;;7.61;46.90;99245.08;1769900;80;21790;-55
2022/02/20 11:21:31;;;;;;;1.10;0.40;;;;;;;7.58;46.76;99246.07;1766193;79;21885;-55
2022/02/20 11:23:59;;;;;;;2.30;0.50;;;;;;;7.52;47.04;99239.66;1769364;78;20922;-54
2022/02/20 11:26:27;;;;;;;1.40;0.40;;;;;;;7.53;47.13;99240.52;1774715;78;21086;-56
2022/02/20 11:28:55;;;;;;;0.67;0.30;;;;;;;7.54;47.19;99232.43;1765224;78;21311;-55
2022/02/20 11:31:22;;;;;;;3.97;0.50;;;;;;;7.52;46.96;99231.62;1767767;78;21301;-55
2022/02/20 11:33:51;;;;;;;2.33;0.50;;;;;;;7.53;46.96;99231.16;1765099;78;20905;-54
2022/02/20 11:36:19;;;;;;;2.80;0.50;;;;;;;7.49;46.53;99221.50;1772969;78;20942;-53
2022/02/20 11:39:07;;;;;;;1.40;0.40;;;;;;;7.45;46.98;99222.59;1745308;79;21412;-56
2022/02/20 11:41:34;;;;;;;1.00;0.40;;;;;;;7.47;46.85;99217.58;1766479;78;20886;-55
2022/02/20 11:44:18;;;;;;;1.90;0.40;;;;;;;7.49;46.76;99217.48;1765763;78;20890;-54
2022/02/20 11:46:47;;;;;;;1.30;0.45;;;;;;;7.51;46.34;99220.50;1764148;78;21660;-56
2022/02/20 11:49:27;;;;;;;0.83;0.40;;;;;;;7.53;46.50;99217.77;1759462;79;21050;-55
2022/02/20 11:52:06;;;;;;;1.50;0.40;;;;;;;7.54;46.49;99207.45;1765270;78;21128;-55